Time;durP1;ratioP1;P1;durP2;ratioP2;P2;SDS_P1;SDS_P2;PMS_P1;PMS_P2;Temp;Humidity;BMP_temperature;BMP_pressure;BME280_temperature;BME280_humidity;BME280_pressure;Samples;Min_cycle;Max_cycle;Signal;HPM_P1;HPM_P2
2023/06/15 00:01:06;;;;;;;9.90;9.10;;;20.50;11.90;;;;;;4989534;28;20425;-60
2023/06/15 00:03:32;;;;;;;9.60;9.10;;;20.50;11.90;;;;;;4989281;28;20439;-60
2023/06/15 00:05:57;;;;;;;9.17;8.67;;;20.50;12.00;;;;;;4990636;28;20855;-60
2023/06/15 00:08:23;;;;;;;10.07;9.07;;;20.50;11.90;;;;;;4990712;28;20202;-60
2023/06/15 00:10:49;;;;;;;9.30;8.60;;;20.50;12.00;;;;;;4990682;28;20697;-60
2023/06/15 00:13:15;;;;;;;10.60;9.80;;;20.40;11.90;;;;;;4990341;28;20205;-61
2023/06/15 00:15:41;;;;;;;9.97;9.27;;;20.40;11.90;;;;;;4991878;28;20488;-62
2023/06/15 00:18:07;;;;;;;9.80;9.10;;;20.40;12.10;;;;;;4990626;28;20509;-60
2023/06/15 00:20:34;;;;;;;10.73;10.00;;;20.30;12.10;;;;;;4989381;28;20217;-60
2023/06/15 00:23:00;;;;;;;10.23;9.50;;;20.30;12.50;;;;;;4984996;28;20210;-60
2023/06/15 00:25:26;;;;;;;9.47;8.50;;;20.30;12.30;;;;;;4990889;28;20417;-59
2023/06/15 00:27:52;;;;;;;9.50;8.90;;;20.20;12.60;;;;;;4991501;28;20413;-60
2023/06/15 00:30:18;;;;;;;10.83;10.03;;;20.10;12.70;;;;;;4990440;28;20230;-60
2023/06/15 00:32:44;;;;;;;10.10;9.50;;;20.10;12.70;;;;;;4993713;28;20178;-59
2023/06/15 00:35:10;;;;;;;10.13;9.53;;;20.10;12.70;;;;;;4993023;28;20462;-59
2023/06/15 00:37:36;;;;;;;10.03;9.43;;;20.10;13.10;;;;;;4992670;28;20412;-60
2023/06/15 00:40:01;;;;;;;9.93;9.18;;;20.10;13.00;;;;;;4955269;28;1152280;-58
2023/06/15 00:42:30;;;;;;;9.60;9.00;;;20.10;13.20;;;;;;4994582;28;20249;-59
2023/06/15 00:44:56;;;;;;;9.70;9.00;;;20.10;13.10;;;;;;4996171;28;20393;-60
2023/06/15 00:47:22;;;;;;;9.43;8.70;;;20.10;12.90;;;;;;4994931;28;20433;-59
2023/06/15 00:49:48;;;;;;;9.53;9.03;;;20.10;13.10;;;;;;4994612;28;20465;-59
2023/06/15 00:52:16;;;;;;;9.47;8.67;;;20.10;13.10;;;;;;4993362;28;20462;-59
2023/06/15 00:54:43;;;;;;;10.40;9.80;;;20.10;13.20;;;;;;5006275;28;20444;-58
2023/06/15 00:57:10;;;;;;;9.20;8.70;;;20.10;13.20;;;;;;4991166;28;20902;-58
2023/06/15 00:59:37;;;;;;;9.73;9.23;;;20.10;13.10;;;;;;5004111;28;20443;-59
2023/06/15 01:02:03;;;;;;;9.30;8.90;;;20.10;12.90;;;;;;4987852;28;20512;-59
2023/06/15 01:04:29;;;;;;;9.20;8.60;;;20.20;12.80;;;;;;4991818;28;20549;-59
2023/06/15 01:07:02;;;;;;;8.67;8.20;;;20.20;13.00;;;;;;4993966;28;20824;-58
2023/06/15 01:09:31;;;;;;;9.60;9.00;;;20.20;12.70;;;;;;4985012;28;20523;-58
2023/06/15 01:12:01;;;;;;;9.10;8.70;;;20.20;12.60;;;;;;4973665;28;20407;-59
2023/06/15 01:14:29;;;;;;;10.20;9.20;;;20.20;12.30;;;;;;4975037;28;20505;-61
2023/06/15 01:17:05;;;;;;;9.43;8.90;;;20.20;12.30;;;;;;4974922;28;20415;-61
2023/06/15 01:19:54;;;;;;;10.30;9.70;;;20.20;12.20;;;;;;4975117;28;20422;-61
2023/06/15 01:22:35;;;;;;;8.90;8.50;;;20.20;12.30;;;;;;4974546;28;20864;-61
2023/06/15 01:25:12;;;;;;;9.53;8.97;;;20.20;12.30;;;;;;4991060;28;20480;-60
2023/06/15 01:27:41;;;;;;;9.73;9.10;;;20.10;12.70;;;;;;4987889;28;20437;-61
2023/06/15 01:30:09;;;;;;;9.70;9.20;;;20.20;12.80;;;;;;4990690;28;20825;-62
2023/06/15 01:32:35;;;;;;;9.93;9.43;;;20.20;12.70;;;;;;5008254;28;20452;-61
2023/06/15 01:35:01;;;;;;;9.53;8.90;;;20.10;13.10;;;;;;4990473;28;20423;-61
2023/06/15 01:37:27;;;;;;;10.10;9.60;;;20.10;12.90;;;;;;5004858;28;20503;-60
2023/06/15 01:39:53;;;;;;;9.97;9.17;;;20.10;13.20;;;;;;4993412;28;20177;-62
2023/06/15 01:42:19;;;;;;;9.93;9.43;;;20.00;13.10;;;;;;4993332;28;20193;-60
2023/06/15 01:44:47;;;;;;;9.83;9.33;;;20.00;13.10;;;;;;4994822;28;20426;-60
2023/06/15 01:47:12;;;;;;;10.87;10.17;;;20.00;13.10;;;;;;4990519;28;20202;-61
2023/06/15 01:49:40;;;;;;;9.67;9.17;;;20.00;13.10;;;;;;5008526;28;20977;-61
2023/06/15 01:52:06;;;;;;;9.60;9.13;;;20.00;13.10;;;;;;4990010;28;20203;-61
2023/06/15 01:54:32;;;;;;;10.17;9.60;;;19.90;13.00;;;;;;5005661;28;20997;-60
2023/06/15 01:56:58;;;;;;;10.03;8.93;;;19.90;13.00;;;;;;4999809;28;20497;-61
2023/06/15 01:59:24;;;;;;;9.97;9.40;;;19.80;13.50;;;;;;4990040;28;20717;-60
2023/06/15 02:01:49;;;;;;;9.90;9.40;;;19.90;13.00;;;;;;4992983;28;20425;-61
2023/06/15 02:04:15;;;;;;;10.17;9.50;;;19.80;13.00;;;;;;4993222;28;20251;-61
2023/06/15 02:06:40;;;;;;;9.93;9.33;;;19.90;13.00;;;;;;4993390;28;20174;-60
2023/06/15 02:09:06;;;;;;;10.07;9.37;;;19.90;13.00;;;;;;4993159;28;20289;-60
2023/06/15 02:11:32;;;;;;;10.50;9.73;;;19.90;13.00;;;;;;4992570;28;20182;-61
2023/06/15 02:13:59;;;;;;;9.93;9.33;;;19.80;12.90;;;;;;4989937;28;20257;-60
2023/06/15 02:16:26;;;;;;;10.53;9.93;;;19.80;13.00;;;;;;4988169;28;20178;-60
2023/06/15 02:18:52;;;;;;;11.00;10.40;;;19.80;13.00;;;;;;4993094;28;20453;-59
2023/06/15 02:21:18;;;;;;;9.90;9.30;;;19.70;13.10;;;;;;4986131;28;20512;-59
2023/06/15 02:23:43;;;;;;;10.40;9.60;;;19.70;13.30;;;;;;4992978;28;20421;-60
2023/06/15 02:26:09;;;;;;;10.03;9.43;;;19.70;13.50;;;;;;4992900;28;20425;-60
2023/06/15 02:28:35;;;;;;;9.37;8.87;;;19.60;13.70;;;;;;4992786;28;20326;-61
2023/06/15 02:31:00;;;;;;;10.90;10.17;;;19.60;13.70;;;;;;4992710;28;20178;-60
2023/06/15 02:33:27;;;;;;;9.83;9.33;;;19.60;13.70;;;;;;4992603;28;20178;-60
2023/06/15 02:35:52;;;;;;;10.33;9.67;;;19.60;14.00;;;;;;4992353;28;20174;-61
2023/06/15 02:38:18;;;;;;;10.10;9.37;;;19.50;14.10;;;;;;4992589;28;20508;-60
2023/06/15 02:40:44;;;;;;;10.20;9.67;;;19.50;14.20;;;;;;4992041;28;20185;-59
2023/06/15 02:43:10;;;;;;;10.53;9.93;;;19.50;14.10;;;;;;4991845;28;20546;-59
2023/06/15 02:45:36;;;;;;;10.93;9.93;;;19.50;14.10;;;;;;5008036;28;20178;-59
2023/06/15 02:48:02;;;;;;;10.27;9.67;;;19.30;14.70;;;;;;4991894;28;20444;-59
2023/06/15 02:50:27;;;;;;;10.43;9.83;;;19.00;15.20;;;;;;4991996;28;20499;-59
2023/06/15 02:52:53;;;;;;;10.13;9.53;;;19.00;15.40;;;;;;4993020;28;20231;-58
2023/06/15 02:55:19;;;;;;;9.10;8.60;;;18.80;15.60;;;;;;4991989;28;20570;-59
2023/06/15 02:57:45;;;;;;;9.37;8.87;;;18.80;15.70;;;;;;4992296;28;20201;-59
2023/06/15 03:00:13;;;;;;;10.27;9.77;;;18.80;15.70;;;;;;4991849;28;20178;-59
2023/06/15 03:02:39;;;;;;;10.30;9.60;;;18.90;15.50;;;;;;4991489;28;20202;-60
2023/06/15 03:05:05;;;;;;;10.97;10.07;;;19.00;15.40;;;;;;5008151;28;20467;-58
2023/06/15 03:07:31;;;;;;;11.10;10.43;;;19.10;15.00;;;;;;4991808;28;20486;-58
2023/06/15 03:09:56;;;;;;;9.90;9.40;;;19.20;15.00;;;;;;4972886;28;20458;-59
2023/06/15 03:12:22;;;;;;;10.23;9.53;;;19.20;14.80;;;;;;4991356;28;20174;-59
2023/06/15 03:14:50;;;;;;;10.80;10.00;;;19.20;14.80;;;;;;4991651;28;20182;-59
2023/06/15 03:17:21;;;;;;;10.23;9.67;;;19.20;14.80;;;;;;4976199;28;20162;-60
2023/06/15 03:19:47;;;;;;;10.17;9.60;;;19.20;15.10;;;;;;5007739;28;20421;-60
2023/06/15 03:22:14;;;;;;;10.20;9.70;;;19.10;15.00;;;;;;4991197;28;20417;-60
2023/06/15 03:24:41;;;;;;;11.67;10.97;;;19.20;15.00;;;;;;4991431;28;20513;-58
2023/06/15 03:27:09;;;;;;;10.80;10.10;;;19.20;15.10;;;;;;4991614;28;20413;-59
2023/06/15 03:29:39;;;;;;;11.80;10.77;;;19.20;15.10;;;;;;4983338;28;20469;-59
2023/06/15 03:32:08;;;;;;;10.20;9.70;;;19.20;15.20;;;;;;4985288;28;20416;-59
2023/06/15 03:34:37;;;;;;;9.83;9.30;;;19.20;15.20;;;;;;4980399;28;20913;-60
2023/06/15 03:37:04;;;;;;;11.53;10.90;;;19.20;15.10;;;;;;4982808;28;20931;-61
2023/06/15 03:39:30;;;;;;;10.63;10.07;;;19.20;14.90;;;;;;4988328;28;20450;-61
2023/06/15 03:41:55;;;;;;;11.00;10.30;;;19.20;14.80;;;;;;4979462;28;20504;-59
2023/06/15 03:44:21;;;;;;;11.07;10.47;;;19.20;15.00;;;;;;4985182;28;20489;-58
2023/06/15 03:46:47;;;;;;;10.00;9.60;;;19.20;14.80;;;;;;4981732;28;20211;-59
2023/06/15 03:49:13;;;;;;;9.90;9.40;;;19.00;15.50;;;;;;4987931;28;20198;-59
2023/06/15 03:51:39;;;;;;;11.00;10.13;;;18.70;16.00;;;;;;4997787;28;20491;-59
2023/06/15 03:54:05;;;;;;;10.63;10.07;;;18.40;16.70;;;;;;4985833;28;20418;-59
2023/06/15 03:56:31;;;;;;;10.90;10.40;;;18.30;16.90;;;;;;4981750;28;20593;-58
2023/06/15 03:58:57;;;;;;;11.47;10.67;;;18.40;16.90;;;;;;4978722;28;20179;-59
2023/06/15 04:01:25;;;;;;;10.23;9.73;;;18.50;16.40;;;;;;4981597;28;20782;-59
2023/06/15 04:03:51;;;;;;;10.87;10.17;;;18.60;16.00;;;;;;4977331;28;20604;-59
2023/06/15 04:06:18;;;;;;;10.73;10.13;;;18.70;16.20;;;;;;4979691;28;20477;-60
2023/06/15 04:08:44;;;;;;;11.70;11.03;;;18.70;16.30;;;;;;4980590;28;20897;-59
2023/06/15 04:11:09;;;;;;;11.40;10.60;;;18.80;16.00;;;;;;4981964;28;20504;-58
2023/06/15 04:13:35;;;;;;;11.07;10.40;;;18.90;15.50;;;;;;4987557;28;20174;-59
2023/06/15 04:16:01;;;;;;;11.13;10.60;;;18.90;15.30;;;;;;4981608;28;20676;-59
2023/06/15 04:18:26;;;;;;;11.70;11.00;;;19.00;15.40;;;;;;4988068;28;20181;-59
2023/06/15 04:20:53;;;;;;;12.03;11.30;;;19.00;15.20;;;;;;4987156;28;20178;-59
2023/06/15 04:23:20;;;;;;;11.37;10.67;;;19.00;15.30;;;;;;4980207;28;20221;-59
2023/06/15 04:25:45;;;;;;;10.43;9.83;;;19.00;15.50;;;;;;4982471;28;20421;-59
2023/06/15 04:28:11;;;;;;;11.60;11.00;;;19.10;15.80;;;;;;4987838;28;20910;-59
2023/06/15 04:30:40;;;;;;;11.47;10.87;;;19.10;15.60;;;;;;4988061;28;20190;-58
2023/06/15 04:33:07;;;;;;;11.03;10.40;;;19.10;15.60;;;;;;4979087;28;20250;-59
2023/06/15 04:35:34;;;;;;;11.13;10.40;;;19.20;15.70;;;;;;4982555;28;20417;-59
2023/06/15 04:38:04;;;;;;;12.10;11.33;;;19.20;15.60;;;;;;4978091;28;20558;-58
2023/06/15 04:40:31;;;;;;;11.30;10.60;;;19.30;15.40;;;;;;4980230;28;20445;-60
2023/06/15 04:42:58;;;;;;;12.50;11.80;;;19.30;15.40;;;;;;4985901;28;20426;-59
2023/06/15 04:45:23;;;;;;;11.67;10.97;;;19.40;15.50;;;;;;4987392;28;20433;-59
2023/06/15 04:47:49;;;;;;;10.63;10.03;;;19.40;15.50;;;;;;4981724;28;20919;-59
2023/06/15 04:50:15;;;;;;;11.47;10.87;;;19.40;15.70;;;;;;4979290;28;20203;-59
2023/06/15 04:52:41;;;;;;;10.50;10.00;;;19.30;15.80;;;;;;4989769;28;20440;-59
2023/06/15 04:55:07;;;;;;;11.53;10.83;;;19.20;16.00;;;;;;4984859;28;20187;-60
2023/06/15 04:57:33;;;;;;;11.87;10.87;;;19.10;16.10;;;;;;4989899;28;20182;-60
2023/06/15 04:59:59;;;;;;;11.47;10.57;;;19.00;16.70;;;;;;4990613;28;20425;-59
2023/06/15 05:02:25;;;;;;;11.10;10.50;;;19.10;16.60;;;;;;4978550;28;20486;-59
2023/06/15 05:04:50;;;;;;;12.30;11.60;;;19.20;16.30;;;;;;4974953;28;20196;-58
2023/06/15 05:07:16;;;;;;;10.77;10.20;;;19.30;16.50;;;;;;4978995;28;20191;-59
2023/06/15 05:09:42;;;;;;;12.13;11.33;;;19.40;17.40;;;;;;4983690;28;20210;-58
2023/06/15 05:12:08;;;;;;;11.80;11.10;;;19.40;16.30;;;;;;4990607;28;20179;-60
2023/06/15 05:14:33;;;;;;;11.57;10.80;;;19.50;16.30;;;;;;4985925;28;20218;-58
2023/06/15 05:17:03;;;;;;;11.93;11.30;;;19.60;15.50;;;;;;4988775;28;20446;-59
2023/06/15 05:19:30;;;;;;;12.30;11.43;;;19.60;15.40;;;;;;4987951;28;20194;-59
2023/06/15 05:22:00;;;;;;;12.00;11.40;;;19.60;15.30;;;;;;4981566;28;20477;-59
2023/06/15 05:24:26;;;;;;;12.00;11.40;;;19.60;15.20;;;;;;4990925;28;20468;-60
2023/06/15 05:26:51;;;;;;;11.30;10.80;;;19.60;15.20;;;;;;5002550;28;20476;-58
2023/06/15 05:29:17;;;;;;;11.83;11.03;;;19.70;15.30;;;;;;4986953;28;21005;-59
2023/06/15 05:31:43;;;;;;;12.07;11.27;;;19.70;16.00;;;;;;4992604;28;20182;-59
2023/06/15 05:34:10;;;;;;;12.43;11.83;;;19.70;15.30;;;;;;4988141;28;20187;-58
2023/06/15 05:36:35;;;;;;;12.70;12.00;;;19.70;15.50;;;;;;4993448;28;20424;-60
2023/06/15 05:39:01;;;;;;;11.50;10.80;;;19.70;15.60;;;;;;4993430;28;20421;-59
2023/06/15 05:41:27;;;;;;;11.57;11.07;;;19.70;15.20;;;;;;4992922;28;20264;-59
2023/06/15 05:43:52;;;;;;;11.90;11.10;;;19.70;15.10;;;;;;4993440;28;20181;-60
2023/06/15 05:46:18;;;;;;;11.23;10.60;;;19.70;14.90;;;;;;4993393;28;20190;-59
2023/06/15 05:48:44;;;;;;;11.60;10.80;;;19.50;15.20;;;;;;5009394;28;20260;-59
2023/06/15 05:51:10;;;;;;;11.43;10.47;;;19.60;15.30;;;;;;4993070;28;20174;-59
2023/06/15 05:53:36;;;;;;;10.27;9.77;;;19.60;15.30;;;;;;5009499;28;20484;-59
2023/06/15 05:56:03;;;;;;;11.40;10.80;;;19.70;14.90;;;;;;4993493;28;20174;-60
2023/06/15 05:58:29;;;;;;;12.03;11.43;;;19.70;14.70;;;;;;5009597;28;20190;-60
2023/06/15 06:00:54;;;;;;;11.93;11.20;;;19.60;14.50;;;;;;4989070;28;20422;-61
2023/06/15 06:03:20;;;;;;;11.00;10.40;;;19.60;14.90;;;;;;4989197;28;20197;-61
2023/06/15 06:05:46;;;;;;;12.00;11.33;;;19.50;15.80;;;;;;4993214;28;20232;-60
2023/06/15 06:08:11;;;;;;;11.27;10.67;;;19.60;15.30;;;;;;4993077;28;20266;-61
2023/06/15 06:10:37;;;;;;;11.10;10.50;;;19.60;15.00;;;;;;5009236;28;20209;-60
2023/06/15 06:13:03;;;;;;;11.43;10.63;;;19.60;15.30;;;;;;4990553;28;20183;-59
2023/06/15 06:15:29;;;;;;;11.90;11.20;;;19.60;15.40;;;;;;4993030;28;20316;-60
2023/06/15 06:17:54;;;;;;;10.60;9.97;;;19.60;15.50;;;;;;4989698;28;20179;-58
2023/06/15 06:20:20;;;;;;;11.70;11.00;;;19.70;15.80;;;;;;4992796;28;20508;-59
2023/06/15 06:22:46;;;;;;;11.90;11.20;;;19.70;14.90;;;;;;5007701;28;20457;-60
2023/06/15 06:25:12;;;;;;;12.83;12.13;;;19.70;15.10;;;;;;4992789;28;20194;-60
2023/06/15 06:27:38;;;;;;;11.50;10.70;;;19.70;15.30;;;;;;4984610;28;20561;-60
2023/06/15 06:30:04;;;;;;;12.53;11.83;;;19.80;15.30;;;;;;4992530;28;20469;-59
2023/06/15 06:32:30;;;;;;;12.03;11.17;;;19.90;15.10;;;;;;4991973;28;20503;-59
2023/06/15 06:34:56;;;;;;;12.87;11.87;;;19.90;15.60;;;;;;4988164;28;20517;-59
2023/06/15 06:37:22;;;;;;;11.50;11.00;;;19.90;15.10;;;;;;4985598;28;20186;-59
2023/06/15 06:39:48;;;;;;;11.23;10.67;;;20.00;15.00;;;;;;4991989;28;20208;-60
2023/06/15 06:42:13;;;;;;;12.03;11.43;;;20.00;15.00;;;;;;4985362;28;20426;-59
2023/06/15 06:44:40;;;;;;;13.50;12.80;;;20.10;15.70;;;;;;4993598;28;20190;-59
2023/06/15 06:47:05;;;;;;;11.90;11.20;;;20.00;14.90;;;;;;4986649;28;20652;-59
2023/06/15 06:49:31;;;;;;;13.50;12.47;;;20.10;15.70;;;;;;4990074;28;20479;-58
2023/06/15 06:51:57;;;;;;;13.60;12.53;;;20.10;15.30;;;;;;4991989;28;20423;-59
2023/06/15 06:54:22;;;;;;;12.23;11.63;;;20.20;14.90;;;;;;4992288;28;20269;-59
2023/06/15 06:56:48;;;;;;;13.70;12.70;;;20.10;14.60;;;;;;4985566;28;20178;-59
2023/06/15 06:59:14;;;;;;;13.60;13.00;;;20.00;15.20;;;;;;4980617;28;20233;-60
2023/06/15 07:01:39;;;;;;;12.97;12.17;;;20.00;14.90;;;;;;4984709;28;20298;-59
2023/06/15 07:04:05;;;;;;;13.00;12.40;;;20.00;15.20;;;;;;4978821;28;20186;-59
2023/06/15 07:06:32;;;;;;;12.80;11.90;;;20.00;14.90;;;;;;4981407;28;20182;-59
2023/06/15 07:08:57;;;;;;;12.93;12.13;;;20.10;14.90;;;;;;4980704;28;20203;-61
2023/06/15 07:11:23;;;;;;;12.13;11.50;;;20.10;15.60;;;;;;5004355;28;21007;-61
2023/06/15 07:13:49;;;;;;;13.03;11.97;;;20.20;15.90;;;;;;4982963;28;20179;-59
2023/06/15 07:16:14;;;;;;;12.20;11.60;;;20.20;14.90;;;;;;4978343;28;20179;-59
2023/06/15 07:18:40;;;;;;;12.50;11.73;;;20.20;15.40;;;;;;4988316;28;20196;-59
2023/06/15 07:21:05;;;;;;;13.83;12.97;;;20.30;15.20;;;;;;5001022;28;20217;-59
2023/06/15 07:23:31;;;;;;;13.93;12.67;;;20.30;15.00;;;;;;4978592;28;20651;-59
2023/06/15 07:25:57;;;;;;;13.83;12.93;;;20.40;14.60;;;;;;4993093;28;20597;-59
2023/06/15 07:28:23;;;;;;;14.47;13.37;;;20.30;15.00;;;;;;4980220;28;20187;-59
2023/06/15 07:30:49;;;;;;;13.73;12.60;;;20.40;14.80;;;;;;4976486;28;20421;-59
2023/06/15 07:33:15;;;;;;;12.87;12.20;;;20.50;15.00;;;;;;4979553;28;20675;-59
2023/06/15 07:35:42;;;;;;;14.40;13.47;;;20.50;14.60;;;;;;4984419;28;20425;-59
2023/06/15 07:38:08;;;;;;;14.97;13.50;;;20.50;14.70;;;;;;4988245;28;20425;-60
2023/06/15 07:40:34;;;;;;;11.97;11.37;;;20.60;15.00;;;;;;4984345;28;20527;-59
2023/06/15 07:43:00;;;;;;;13.63;12.73;;;20.60;15.50;;;;;;4979063;28;20187;-59
2023/06/15 07:45:26;;;;;;;14.20;13.30;;;20.60;15.10;;;;;;4980283;28;20187;-60
2023/06/15 07:47:51;;;;;;;15.40;14.40;;;20.70;14.90;;;;;;4981219;28;20441;-59
2023/06/15 07:50:17;;;;;;;14.50;13.67;;;20.70;14.90;;;;;;4980030;28;20466;-59
2023/06/15 07:52:43;;;;;;;13.33;12.70;;;20.80;14.90;;;;;;4986795;28;20182;-60
2023/06/15 07:55:09;;;;;;;14.37;13.57;;;20.90;15.50;;;;;;4980019;28;20810;-59
2023/06/15 07:57:35;;;;;;;14.40;13.33;;;21.00;15.30;;;;;;4986482;28;20178;-59
2023/06/15 08:00:04;;;;;;;14.90;13.90;;;21.00;14.50;;;;;;4986260;28;20182;-58
2023/06/15 08:02:30;;;;;;;13.90;13.20;;;21.00;14.50;;;;;;4979780;28;20205;-59
2023/06/15 08:04:56;;;;;;;14.60;13.80;;;21.00;14.30;;;;;;4991151;28;20487;-60
2023/06/15 08:07:22;;;;;;;13.10;12.30;;;21.00;14.10;;;;;;4991405;28;20429;-60
2023/06/15 08:09:47;;;;;;;13.23;12.43;;;21.10;14.90;;;;;;4991133;28;20212;-61
2023/06/15 08:12:13;;;;;;;13.77;12.80;;;21.10;14.40;;;;;;4979347;28;20178;-60
2023/06/15 08:14:39;;;;;;;13.23;12.53;;;21.10;14.60;;;;;;4984160;28;20213;-59
2023/06/15 08:17:05;;;;;;;14.83;13.63;;;21.20;14.60;;;;;;4985578;28;20178;-59
2023/06/15 08:19:31;;;;;;;14.27;13.47;;;21.20;15.10;;;;;;4980707;28;20187;-59
2023/06/15 08:21:56;;;;;;;13.20;12.20;;;21.20;14.40;;;;;;4979439;28;20481;-59
2023/06/15 08:24:22;;;;;;;12.87;12.27;;;21.30;14.70;;;;;;4979447;28;20225;-59
2023/06/15 08:26:51;;;;;;;14.00;13.30;;;21.30;14.00;;;;;;4981436;28;20189;-59
2023/06/15 08:29:16;;;;;;;13.27;12.13;;;21.40;13.50;;;;;;4986754;28;20205;-64
2023/06/15 08:31:42;;;;;;;13.50;12.70;;;21.50;13.60;;;;;;4978961;28;20485;-59
2023/06/15 08:34:08;;;;;;;14.60;13.47;;;21.50;13.20;;;;;;4985356;28;20526;-59
2023/06/15 08:36:34;;;;;;;13.17;12.47;;;21.70;13.50;;;;;;4988835;28;20190;-60
2023/06/15 08:39:00;;;;;;;12.37;11.70;;;21.70;13.50;;;;;;4986052;28;20187;-60
2023/06/15 08:41:27;;;;;;;12.97;11.97;;;21.70;13.20;;;;;;4985086;28;20442;-60
2023/06/15 08:43:53;;;;;;;11.90;11.40;;;21.70;13.50;;;;;;4976511;28;20428;-60
2023/06/15 08:46:22;;;;;;;13.20;12.50;;;21.70;13.60;;;;;;4990440;28;20503;-60
2023/06/15 08:48:51;;;;;;;12.27;11.60;;;21.80;13.50;;;;;;4993907;28;20288;-60
2023/06/15 08:51:17;;;;;;;13.00;12.20;;;21.90;13.10;;;;;;4983519;28;20414;-60
2023/06/15 08:53:45;;;;;;;13.80;12.90;;;21.90;13.00;;;;;;4990079;28;20760;-61
2023/06/15 08:56:11;;;;;;;14.60;13.73;;;21.90;13.30;;;;;;4994584;28;20500;-60
2023/06/15 08:58:38;;;;;;;12.20;11.50;;;22.00;12.70;;;;;;4995569;28;20556;-61
2023/06/15 09:01:05;;;;;;;13.60;12.47;;;22.10;12.60;;;;;;4994343;28;20560;-61
2023/06/15 09:03:33;;;;;;;13.47;12.67;;;22.50;12.00;;;;;;4986184;28;20505;-61
2023/06/15 09:06:00;;;;;;;12.60;11.93;;;22.50;12.30;;;;;;4994327;28;20413;-61
2023/06/15 09:08:25;;;;;;;13.60;12.90;;;22.50;12.70;;;;;;4994266;28;20409;-61
2023/06/15 09:11:04;;;;;;;12.90;12.03;;;22.60;11.40;;;;;;4994184;28;20421;-60
2023/06/15 09:13:32;;;;;;;11.53;11.00;;;22.70;11.50;;;;;;4988184;28;20261;-60
2023/06/15 09:16:02;;;;;;;11.80;11.03;;;22.70;11.60;;;;;;4994060;28;20420;-59
2023/06/15 09:18:28;;;;;;;11.73;11.13;;;22.60;11.40;;;;;;4982611;28;20476;-59
2023/06/15 09:21:00;;;;;;;11.30;10.70;;;22.60;11.30;;;;;;4983467;28;20421;-60
2023/06/15 09:23:25;;;;;;;11.40;10.70;;;22.60;11.40;;;;;;4991959;28;20185;-59
2023/06/15 09:25:52;;;;;;;12.20;11.60;;;22.60;11.10;;;;;;4995014;28;20855;-60
2023/06/15 09:28:22;;;;;;;11.43;10.73;;;22.70;11.10;;;;;;4982447;28;20189;-60
2023/06/15 09:30:53;;;;;;;11.33;10.73;;;22.90;10.40;;;;;;4993573;28;21055;-60
2023/06/15 09:33:20;;;;;;;11.00;10.23;;;22.90;10.40;;;;;;4990047;28;20986;-59
2023/06/15 09:36:03;;;;;;;16.63;10.80;;;22.90;10.60;;;;;;4987113;28;20413;-59
2023/06/15 09:38:40;;;;;;;11.27;10.67;;;23.00;9.50;;;;;;4987823;28;20945;-59
2023/06/15 09:41:07;;;;;;;13.20;12.43;;;23.10;8.80;;;;;;5007223;28;20528;-61
2023/06/15 09:43:40;;;;;;;11.03;10.33;;;23.20;9.30;;;;;;4993666;28;20417;-61
2023/06/15 09:46:16;;;;;;;10.17;9.57;;;23.20;8.50;;;;;;4993859;28;20810;-61
2023/06/15 09:48:46;;;;;;;10.60;9.90;;;23.20;8.70;;;;;;4993496;28;20424;-60
2023/06/15 09:51:13;;;;;;;10.27;9.67;;;23.20;8.90;;;;;;4988488;28;20855;-60
2023/06/15 09:53:42;;;;;;;10.23;9.70;;;23.40;7.70;;;;;;4993141;28;20445;-60
2023/06/15 09:56:09;;;;;;;10.00;9.50;;;23.50;6.70;;;;;;4993411;28;20423;-61
2023/06/15 09:58:35;;;;;;;10.47;9.87;;;23.70;6.70;;;;;;4991548;28;20947;-61
2023/06/15 10:01:07;;;;;;;9.40;9.00;;;23.80;6.80;;;;;;4993239;28;20421;-62
2023/06/15 10:03:33;;;;;;;10.20;9.60;;;23.90;6.40;;;;;;4992887;28;20646;-60
2023/06/15 10:06:05;;;;;;;10.13;9.60;;;24.10;5.90;;;;;;4993186;28;20419;-61
2023/06/15 10:08:34;;;;;;;9.20;8.70;;;24.20;6.00;;;;;;4992738;28;20424;-61
2023/06/15 10:11:00;;;;;;;9.90;9.10;;;24.40;5.30;;;;;;4993008;28;20413;-61
2023/06/15 10:13:51;;;;;;;10.60;9.70;;;24.50;4.90;;;;;;4992513;28;20417;-61
2023/06/15 10:16:18;;;;;;;10.90;10.20;;;24.40;5.80;;;;;;4992886;28;20488;-60
2023/06/15 10:18:48;;;;;;;9.73;9.23;;;24.70;5.10;;;;;;4993020;28;20773;-61
2023/06/15 10:21:18;;;;;;;9.97;9.47;;;24.80;4.50;;;;;;4990403;28;20454;-60
2023/06/15 10:23:49;;;;;;;10.20;9.70;;;25.10;4.20;;;;;;4992740;28;20416;-61
2023/06/15 10:26:15;;;;;;;10.80;10.20;;;25.40;3.20;;;;;;4991984;28;20422;-60
2023/06/15 10:28:50;;;;;;;10.50;9.90;;;25.40;3.20;;;;;;4992895;28;20749;-60
2023/06/15 10:31:30;;;;;;;9.53;9.10;;;25.40;3.50;;;;;;5008685;28;20174;-61
2023/06/15 10:34:08;;;;;;;9.73;9.23;;;25.50;3.20;;;;;;5001402;28;20474;-60
2023/06/15 10:36:50;;;;;;;9.90;9.30;;;25.50;2.40;;;;;;5006652;28;20420;-60
2023/06/15 10:39:29;;;;;;;9.90;9.50;;;25.50;2.60;;;;;;4992319;28;20433;-60
2023/06/15 10:41:58;;;;;;;10.67;9.93;;;25.50;2.10;;;;;;4992087;28;20452;-61
2023/06/15 10:44:34;;;;;;;10.63;10.13;;;25.60;1.80;;;;;;4989121;28;20837;-61
2023/06/15 10:47:10;;;;;;;9.83;9.33;;;25.70;2.50;;;;;;4995112;28;20420;-60
2023/06/15 10:49:36;;;;;;;9.90;9.30;;;25.70;2.00;;;;;;4988860;28;20469;-61
2023/06/15 10:52:05;;;;;;;10.33;9.40;;;25.70;2.30;;;;;;4991785;28;20413;-62
2023/06/15 10:54:31;;;;;;;9.83;9.30;;;25.70;2.00;;;;;;4992348;28;20182;-61
2023/06/15 10:57:00;;;;;;;9.10;8.67;;;25.60;1.70;;;;;;4989149;28;20950;-60
2023/06/15 10:59:49;;;;;;;9.20;8.80;;;25.50;1.30;;;;;;4992114;28;20178;-60
2023/06/15 11:02:33;;;;;;;10.10;9.53;;;25.70;2.90;;;;;;4988148;28;20429;-59
2023/06/15 11:05:12;;;;;;;10.40;9.67;;;25.80;2.00;;;;;;4985137;28;20464;-59
2023/06/15 11:07:45;;;;;;;10.27;9.70;;;25.70;2.90;;;;;;5005845;28;20425;-58
2023/06/15 11:10:22;;;;;;;10.40;9.60;;;25.60;3.30;;;;;;4991864;28;20568;-59
2023/06/15 11:13:00;;;;;;;10.87;10.17;;;25.40;4.00;;;;;;4991273;28;20445;-59
2023/06/15 11:15:34;;;;;;;10.37;9.73;;;25.30;4.40;;;;;;4980707;28;20433;-60
2023/06/15 11:18:02;;;;;;;10.37;9.87;;;25.10;3.90;;;;;;4977785;28;20422;-61
2023/06/15 11:20:42;;;;;;;10.67;9.97;;;25.00;4.40;;;;;;4988652;28;20808;-61
2023/06/15 11:23:18;;;;;;;10.23;9.70;;;24.90;4.10;;;;;;4987828;28;20413;-60
2023/06/15 11:25:54;;;;;;;10.10;9.40;;;24.80;4.40;;;;;;4991764;28;20421;-59
2023/06/15 11:28:30;;;;;;;10.53;9.70;;;24.70;4.70;;;;;;4988353;28;20429;-59
2023/06/15 11:30:59;;;;;;;9.97;9.43;;;24.80;3.30;;;;;;5002146;28;20520;-60
2023/06/15 11:33:36;;;;;;;12.13;11.30;;;24.90;3.50;;;;;;4991090;28;20425;-59
2023/06/15 11:36:07;;;;;;;10.40;9.70;;;25.20;2.60;;;;;;4991348;28;20420;-59
2023/06/15 11:38:33;;;;;;;10.50;8.67;;;25.20;2.80;;;;;;4991735;28;20821;-60
2023/06/15 11:41:08;;;;;;;10.50;9.33;;;25.20;3.30;;;;;;4989411;28;20864;-59
2023/06/15 11:43:35;;;;;;;10.00;9.40;;;25.10;3.60;;;;;;4991197;28;20421;-61
2023/06/15 11:46:01;;;;;;;11.00;9.50;;;25.10;4.00;;;;;;4988202;28;20816;-61
2023/06/15 11:48:26;;;;;;;10.67;10.17;;;25.00;3.90;;;;;;4982891;28;20431;-62
2023/06/15 11:50:52;;;;;;;9.57;9.07;;;24.90;3.30;;;;;;4983509;28;20268;-61
2023/06/15 11:53:18;;;;;;;9.17;8.67;;;24.80;2.10;;;;;;4990908;28;20272;-61
2023/06/15 11:55:45;;;;;;;9.60;9.10;;;24.70;2.10;;;;;;4990600;28;20788;-61
2023/06/15 11:58:11;;;;;;;9.83;9.00;;;24.60;2.70;;;;;;4991511;28;20224;-60
2023/06/15 12:00:38;;;;;;;8.90;8.50;;;24.60;1.90;;;;;;4989421;28;20779;-62
2023/06/15 12:03:11;;;;;;;10.00;9.37;;;24.60;1.70;;;;;;4991054;28;20237;-61
2023/06/15 12:05:40;;;;;;;9.40;8.90;;;24.50;1.30;;;;;;4989490;28;20434;-61
2023/06/15 12:08:06;;;;;;;9.47;9.07;;;24.60;2.20;;;;;;4991296;28;20457;-61
2023/06/15 12:10:39;;;;;;;9.57;9.17;;;24.60;1.00;;;;;;4991087;28;20469;-61
2023/06/15 12:13:12;;;;;;;9.53;9.13;;;24.50;1.00;;;;;;4990662;28;20421;-61
2023/06/15 12:15:39;;;;;;;10.00;9.50;;;24.40;1.00;;;;;;4991051;28;20941;-61
2023/06/15 12:18:08;;;;;;;9.50;8.70;;;24.40;2.30;;;;;;5003779;28;20405;-61
2023/06/15 12:20:36;;;;;;;9.93;9.47;;;24.30;2.80;;;;;;5006049;28;20520;-62
2023/06/15 12:23:02;;;;;;;8.83;8.43;;;24.40;3.40;;;;;;4986586;28;20467;-61
2023/06/15 12:25:42;;;;;;;9.90;9.40;;;24.40;3.20;;;;;;4994917;28;21165;-61
2023/06/15 12:28:18;;;;;;;9.70;9.03;;;24.30;3.50;;;;;;4983725;28;20198;-61
2023/06/15 12:30:47;;;;;;;10.70;10.10;;;24.30;3.00;;;;;;4987877;28;20472;-61
2023/06/15 12:33:41;;;;;;;10.70;10.10;;;24.30;2.60;;;;;;4991182;28;20421;-61
2023/06/15 12:36:17;;;;;;;10.17;9.67;;;24.40;2.60;;;;;;5007980;28;20421;-61
2023/06/15 12:38:46;;;;;;;9.47;9.03;;;24.60;3.60;;;;;;4994789;28;20424;-61